Adaven, Nevada
Current Conditions -  °F | °C
As of 7:56 AM on Sunday 21 Dec 2014 (Local Time) from KTPH Reporting Station
Clear Clear  
Wind Chill: 24°   Ceiling: Unl
Heat Index: 30°   Visibility: 10mi
Dew Point: 27°   Wind: 6mph
Humidity: 88%   Direction: NA
Pressure: 30.18"   Gusts: NA
Location:  38.13°N, 115.6°W
Report Text: KTPH 211556Z AUTO VRB05KT 10SM CLR M01/M03 A3018 RMK AO2 SLP233 T10111028
Loading
Personal Weather Stations






























Interactive Weather Map New forecast layout! Learn more

10-Day Weather Forecast

Advertisements
Track Severe Weather on mobile